sensor_id;sensor_type;location;lat;lon;timestamp;temperature;humidity
3602;DHT22;1815;50.950;6.920;2022-11-27T00:02:01;7.60;99.90
3602;DHT22;1815;50.950;6.920;2022-11-27T00:04:27;7.60;99.90
3602;DHT22;1815;50.950;6.920;2022-11-27T00:06:53;7.60;99.90
3602;DHT22;1815;50.950;6.920;2022-11-27T00:09:18;7.60;99.90
3602;DHT22;1815;50.950;6.920;2022-11-27T00:11:44;7.60;99.90
3602;DHT22;1815;50.950;6.920;2022-11-27T00:14:12;7.60;99.90
3602;DHT22;1815;50.950;6.920;2022-11-27T00:16:38;7.60;99.90
3602;DHT22;1815;50.950;6.920;2022-11-27T00:19:04;7.60;99.90
3602;DHT22;1815;50.950;6.920;2022-11-27T00:21:32;7.60;99.90
3602;DHT22;1815;50.950;6.920;2022-11-27T00:24:02;7.60;99.90
3602;DHT22;1815;50.950;6.920;2022-11-27T00:26:29;7.60;99.90
3602;DHT22;1815;50.950;6.920;2022-11-27T00:28:55;7.60;99.90
3602;DHT22;1815;50.950;6.920;2022-11-27T00:31:27;7.60;99.90
3602;DHT22;1815;50.950;6.920;2022-11-27T00:33:55;7.60;99.90
3602;DHT22;1815;50.950;6.920;2022-11-27T00:36:21;7.60;99.90
3602;DHT22;1815;50.950;6.920;2022-11-27T00:38:47;7.60;99.90
3602;DHT22;1815;50.950;6.920;2022-11-27T00:41:21;7.60;99.90
3602;DHT22;1815;50.950;6.920;2022-11-27T00:43:48;7.60;99.90
3602;DHT22;1815;50.950;6.920;2022-11-27T00:46:19;7.50;99.90
3602;DHT22;1815;50.950;6.920;2022-11-27T00:48:45;7.50;99.90
3602;DHT22;1815;50.950;6.920;2022-11-27T00:51:14;7.50;99.90
3602;DHT22;1815;50.950;6.920;2022-11-27T00:53:41;7.50;99.90
3602;DHT22;1815;50.950;6.920;2022-11-27T00:56:07;7.50;99.90
3602;DHT22;1815;50.950;6.920;2022-11-27T00:58:34;7.50;99.90
3602;DHT22;1815;50.950;6.920;2022-11-27T01:01:02;7.50;99.90
3602;DHT22;1815;50.950;6.920;2022-11-27T01:03:29;7.50;99.90
3602;DHT22;1815;50.950;6.920;2022-11-27T01:05:55;7.50;99.90
3602;DHT22;1815;50.950;6.920;2022-11-27T01:08:21;7.50;99.90
3602;DHT22;1815;50.950;6.920;2022-11-27T01:10:53;7.50;99.90
3602;DHT22;1815;50.950;6.920;2022-11-27T01:13:22;7.50;99.90
3602;DHT22;1815;50.950;6.920;2022-11-27T01:15:58;7.50;99.90
3602;DHT22;1815;50.950;6.920;2022-11-27T01:18:24;7.60;99.90
3602;DHT22;1815;50.950;6.920;2022-11-27T01:20:53;7.60;99.90
3602;DHT22;1815;50.950;6.920;2022-11-27T01:23:19;7.50;99.90
3602;DHT22;1815;50.950;6.920;2022-11-27T01:25:45;7.50;99.90
3602;DHT22;1815;50.950;6.920;2022-11-27T01:28:11;7.60;99.90
3602;DHT22;1815;50.950;6.920;2022-11-27T01:30:37;7.60;99.90
3602;DHT22;1815;50.950;6.920;2022-11-27T01:33:03;7.60;99.90
3602;DHT22;1815;50.950;6.920;2022-11-27T01:35:29;7.60;99.90
3602;DHT22;1815;50.950;6.920;2022-11-27T01:37:55;7.50;99.90
3602;DHT22;1815;50.950;6.920;2022-11-27T01:40:21;7.50;99.90
3602;DHT22;1815;50.950;6.920;2022-11-27T01:42:46;7.50;99.90
3602;DHT22;1815;50.950;6.920;2022-11-27T01:45:15;7.60;99.90
3602;DHT22;1815;50.950;6.920;2022-11-27T01:47:45;7.50;99.90
3602;DHT22;1815;50.950;6.920;2022-11-27T01:50:25;7.50;99.90
3602;DHT22;1815;50.950;6.920;2022-11-27T01:52:54;7.50;99.90
3602;DHT22;1815;50.950;6.920;2022-11-27T01:55:32;7.60;99.90
3602;DHT22;1815;50.950;6.920;2022-11-27T01:58:04;7.60;99.90
3602;DHT22;1815;50.950;6.920;2022-11-27T02:00:31;7.60;99.90
3602;DHT22;1815;50.950;6.920;2022-11-27T02:02:57;7.50;99.90
3602;DHT22;1815;50.950;6.920;2022-11-27T02:05:28;7.50;99.90
3602;DHT22;1815;50.950;6.920;2022-11-27T02:07:56;7.50;99.90
3602;DHT22;1815;50.950;6.920;2022-11-27T02:10:37;7.50;99.90
3602;DHT22;1815;50.950;6.920;2022-11-27T02:13:16;7.50;99.90
3602;DHT22;1815;50.950;6.920;2022-11-27T02:16:09;7.40;99.90
3602;DHT22;1815;50.950;6.920;2022-11-27T02:18:46;7.40;99.90
3602;DHT22;1815;50.950;6.920;2022-11-27T02:21:21;7.40;99.90
3602;DHT22;1815;50.950;6.920;2022-11-27T02:24:12;7.40;99.90
3602;DHT22;1815;50.950;6.920;2022-11-27T02:29:33;7.40;99.90
3602;DHT22;1815;50.950;6.920;2022-11-27T02:32:11;7.40;99.90
3602;DHT22;1815;50.950;6.920;2022-11-27T02:42:18;7.40;99.90
3602;DHT22;1815;50.950;6.920;2022-11-27T02:44:54;7.40;99.90
3602;DHT22;1815;50.950;6.920;2022-11-27T02:47:22;7.30;99.90
3602;DHT22;1815;50.950;6.920;2022-11-27T02:49:50;7.30;99.90
3602;DHT22;1815;50.950;6.920;2022-11-27T02:52:19;7.30;99.90
3602;DHT22;1815;50.950;6.920;2022-11-27T02:54:47;7.30;99.90
3602;DHT22;1815;50.950;6.920;2022-11-27T02:57:15;7.30;99.90
3602;DHT22;1815;50.950;6.920;2022-11-27T02:59:43;7.30;99.90
3602;DHT22;1815;50.950;6.920;2022-11-27T03:02:13;7.20;99.90
3602;DHT22;1815;50.950;6.920;2022-11-27T03:04:45;7.20;99.90
3602;DHT22;1815;50.950;6.920;2022-11-27T03:07:20;7.20;99.90
3602;DHT22;1815;50.950;6.920;2022-11-27T03:09:49;7.20;99.90
3602;DHT22;1815;50.950;6.920;2022-11-27T03:12:17;7.20;99.90
3602;DHT22;1815;50.950;6.920;2022-11-27T03:14:44;7.20;99.90
3602;DHT22;1815;50.950;6.920;2022-11-27T03:19:57;7.10;99.90
3602;DHT22;1815;50.950;6.920;2022-11-27T03:22:25;7.10;99.90
3602;DHT22;1815;50.950;6.920;2022-11-27T03:24:53;7.10;99.90
3602;DHT22;1815;50.950;6.920;2022-11-27T03:27:25;7.00;99.90
3602;DHT22;1815;50.950;6.920;2022-11-27T03:29:59;7.00;99.90
3602;DHT22;1815;50.950;6.920;2022-11-27T03:32:26;7.00;99.90
3602;DHT22;1815;50.950;6.920;2022-11-27T03:34:53;7.00;99.90
3602;DHT22;1815;50.950;6.920;2022-11-27T03:37:20;7.00;99.90
3602;DHT22;1815;50.950;6.920;2022-11-27T03:39:46;7.00;99.90
3602;DHT22;1815;50.950;6.920;2022-11-27T03:45:04;7.00;99.90
3602;DHT22;1815;50.950;6.920;2022-11-27T03:53:08;7.10;99.90
3602;DHT22;1815;50.950;6.920;2022-11-27T03:58:27;7.10;99.90
3602;DHT22;1815;50.950;6.920;2022-11-27T04:00:55;7.10;99.90
3602;DHT22;1815;50.950;6.920;2022-11-27T04:03:26;7.10;99.90
3602;DHT22;1815;50.950;6.920;2022-11-27T04:05:52;7.10;99.90
3602;DHT22;1815;50.950;6.920;2022-11-27T04:08:18;7.20;99.90
3602;DHT22;1815;50.950;6.920;2022-11-27T04:10:43;7.20;99.90
3602;DHT22;1815;50.950;6.920;2022-11-27T04:13:09;7.10;99.90
3602;DHT22;1815;50.950;6.920;2022-11-27T04:15:35;7.20;99.90
3602;DHT22;1815;50.950;6.920;2022-11-27T04:18:01;7.20;99.90
3602;DHT22;1815;50.950;6.920;2022-11-27T04:20:26;7.20;99.90
3602;DHT22;1815;50.950;6.920;2022-11-27T04:22:54;7.20;99.90
3602;DHT22;1815;50.950;6.920;2022-11-27T04:25:20;7.20;99.90
3602;DHT22;1815;50.950;6.920;2022-11-27T04:27:46;7.30;99.90
3602;DHT22;1815;50.950;6.920;2022-11-27T04:30:12;7.20;99.90
3602;DHT22;1815;50.950;6.920;2022-11-27T04:32:38;7.30;99.90
3602;DHT22;1815;50.950;6.920;2022-11-27T04:35:04;7.30;99.90
3602;DHT22;1815;50.950;6.920;2022-11-27T04:37:30;7.30;99.90
3602;DHT22;1815;50.950;6.920;2022-11-27T04:39:56;7.20;99.90
3602;DHT22;1815;50.950;6.920;2022-11-27T04:42:22;7.20;99.90
3602;DHT22;1815;50.950;6.920;2022-11-27T04:44:48;7.20;99.90
3602;DHT22;1815;50.950;6.920;2022-11-27T04:47:14;7.20;99.90
3602;DHT22;1815;50.950;6.920;2022-11-27T04:49:39;7.10;99.90
3602;DHT22;1815;50.950;6.920;2022-11-27T04:52:05;7.20;99.90
3602;DHT22;1815;50.950;6.920;2022-11-27T04:54:31;7.20;99.90
3602;DHT22;1815;50.950;6.920;2022-11-27T04:56:57;7.20;99.90
3602;DHT22;1815;50.950;6.920;2022-11-27T04:59:22;7.20;99.90
3602;DHT22;1815;50.950;6.920;2022-11-27T05:01:48;7.20;99.90
3602;DHT22;1815;50.950;6.920;2022-11-27T05:04:14;7.20;99.90
3602;DHT22;1815;50.950;6.920;2022-11-27T05:06:40;7.10;99.90
3602;DHT22;1815;50.950;6.920;2022-11-27T05:09:06;7.20;99.90
3602;DHT22;1815;50.950;6.920;2022-11-27T05:11:32;7.20;99.90
3602;DHT22;1815;50.950;6.920;2022-11-27T05:13:58;7.20;99.90
3602;DHT22;1815;50.950;6.920;2022-11-27T05:16:58;7.20;99.90
3602;DHT22;1815;50.950;6.920;2022-11-27T05:19:28;7.10;99.90
3602;DHT22;1815;50.950;6.920;2022-11-27T05:21:54;7.10;99.90
3602;DHT22;1815;50.950;6.920;2022-11-27T05:24:21;7.20;99.90
3602;DHT22;1815;50.950;6.920;2022-11-27T05:26:48;7.20;99.90
3602;DHT22;1815;50.950;6.920;2022-11-27T05:29:14;7.20;99.90
3602;DHT22;1815;50.950;6.920;2022-11-27T05:31:40;7.20;99.90
3602;DHT22;1815;50.950;6.920;2022-11-27T05:34:06;7.30;99.90
3602;DHT22;1815;50.950;6.920;2022-11-27T05:36:33;7.30;99.90
3602;DHT22;1815;50.950;6.920;2022-11-27T05:38:59;7.30;99.90
3602;DHT22;1815;50.950;6.920;2022-11-27T05:41:27;7.30;99.90
3602;DHT22;1815;50.950;6.920;2022-11-27T05:43:53;7.40;99.90
3602;DHT22;1815;50.950;6.920;2022-11-27T05:46:20;7.40;99.90
3602;DHT22;1815;50.950;6.920;2022-11-27T05:48:46;7.50;99.90
3602;DHT22;1815;50.950;6.920;2022-11-27T05:51:12;7.50;99.90
3602;DHT22;1815;50.950;6.920;2022-11-27T05:53:38;7.50;99.90
3602;DHT22;1815;50.950;6.920;2022-11-27T05:56:06;7.50;99.90
3602;DHT22;1815;50.950;6.920;2022-11-27T05:58:33;7.50;99.90
3602;DHT22;1815;50.950;6.920;2022-11-27T06:00:59;7.50;99.90
3602;DHT22;1815;50.950;6.920;2022-11-27T06:03:25;7.50;99.90
3602;DHT22;1815;50.950;6.920;2022-11-27T06:05:52;7.50;99.90
3602;DHT22;1815;50.950;6.920;2022-11-27T06:08:18;7.50;99.90
3602;DHT22;1815;50.950;6.920;2022-11-27T06:10:45;7.60;99.90
3602;DHT22;1815;50.950;6.920;2022-11-27T06:13:11;7.50;99.90
3602;DHT22;1815;50.950;6.920;2022-11-27T06:15:38;7.50;99.90
3602;DHT22;1815;50.950;6.920;2022-11-27T06:18:04;7.60;99.90
3602;DHT22;1815;50.950;6.920;2022-11-27T06:20:30;7.60;99.90
3602;DHT22;1815;50.950;6.920;2022-11-27T06:22:56;7.60;99.90
3602;DHT22;1815;50.950;6.920;2022-11-27T06:25:22;7.60;99.90
3602;DHT22;1815;50.950;6.920;2022-11-27T06:27:49;7.70;99.90
3602;DHT22;1815;50.950;6.920;2022-11-27T06:30:16;7.60;99.90
3602;DHT22;1815;50.950;6.920;2022-11-27T06:32:42;7.60;99.90
3602;DHT22;1815;50.950;6.920;2022-11-27T06:35:08;7.60;99.90
3602;DHT22;1815;50.950;6.920;2022-11-27T06:37:34;7.60;99.90
3602;DHT22;1815;50.950;6.920;2022-11-27T06:40:00;7.60;99.90
3602;DHT22;1815;50.950;6.920;2022-11-27T06:42:29;7.60;99.90
3602;DHT22;1815;50.950;6.920;2022-11-27T06:44:56;7.60;99.90
3602;DHT22;1815;50.950;6.920;2022-11-27T06:47:22;7.70;99.90
3602;DHT22;1815;50.950;6.920;2022-11-27T06:49:48;7.70;99.90
3602;DHT22;1815;50.950;6.920;2022-11-27T06:52:14;7.70;99.90
3602;DHT22;1815;50.950;6.920;2022-11-27T06:54:40;7.70;99.90
3602;DHT22;1815;50.950;6.920;2022-11-27T06:57:05;7.70;99.90
3602;DHT22;1815;50.950;6.920;2022-11-27T06:59:31;7.70;99.90
3602;DHT22;1815;50.950;6.920;2022-11-27T07:02:00;7.80;99.90
3602;DHT22;1815;50.950;6.920;2022-11-27T07:04:26;7.80;99.90
3602;DHT22;1815;50.950;6.920;2022-11-27T07:06:53;7.80;99.90
3602;DHT22;1815;50.950;6.920;2022-11-27T07:09:19;7.90;99.90
3602;DHT22;1815;50.950;6.920;2022-11-27T07:11:44;7.90;99.90
3602;DHT22;1815;50.950;6.920;2022-11-27T07:14:10;7.80;99.90
3602;DHT22;1815;50.950;6.920;2022-11-27T07:16:36;7.90;99.90
3602;DHT22;1815;50.950;6.920;2022-11-27T07:19:05;7.90;99.90
3602;DHT22;1815;50.950;6.920;2022-11-27T07:21:31;7.90;99.90
3602;DHT22;1815;50.950;6.920;2022-11-27T07:23:57;8.00;99.90
3602;DHT22;1815;50.950;6.920;2022-11-27T07:26:25;8.00;99.90
3602;DHT22;1815;50.950;6.920;2022-11-27T07:28:52;8.00;99.90
3602;DHT22;1815;50.950;6.920;2022-11-27T07:31:21;8.10;99.90
3602;DHT22;1815;50.950;6.920;2022-11-27T07:33:48;8.10;99.90
3602;DHT22;1815;50.950;6.920;2022-11-27T07:36:22;8.10;99.90
3602;DHT22;1815;50.950;6.920;2022-11-27T07:38:49;8.10;99.90
3602;DHT22;1815;50.950;6.920;2022-11-27T07:41:15;8.20;99.90
3602;DHT22;1815;50.950;6.920;2022-11-27T07:43:42;8.20;99.90
3602;DHT22;1815;50.950;6.920;2022-11-27T07:46:27;8.10;99.90
3602;DHT22;1815;50.950;6.920;2022-11-27T07:48:54;8.20;99.90
3602;DHT22;1815;50.950;6.920;2022-11-27T07:51:20;8.20;99.90
3602;DHT22;1815;50.950;6.920;2022-11-27T07:53:48;8.30;99.90
3602;DHT22;1815;50.950;6.920;2022-11-27T07:56:16;8.40;99.90
3602;DHT22;1815;50.950;6.920;2022-11-27T07:58:43;8.40;99.90
3602;DHT22;1815;50.950;6.920;2022-11-27T08:01:17;8.50;99.90
3602;DHT22;1815;50.950;6.920;2022-11-27T08:03:43;8.40;99.90
3602;DHT22;1815;50.950;6.920;2022-11-27T08:06:14;8.50;99.90
3602;DHT22;1815;50.950;6.920;2022-11-27T08:08:41;8.50;99.90
3602;DHT22;1815;50.950;6.920;2022-11-27T08:11:23;8.60;99.90
3602;DHT22;1815;50.950;6.920;2022-11-27T08:13:54;8.50;99.90
3602;DHT22;1815;50.950;6.920;2022-11-27T08:16:20;8.60;99.90
3602;DHT22;1815;50.950;6.920;2022-11-27T08:18:46;8.70;99.90
3602;DHT22;1815;50.950;6.920;2022-11-27T08:21:12;8.70;99.90
3602;DHT22;1815;50.950;6.920;2022-11-27T08:23:38;8.70;99.90
3602;DHT22;1815;50.950;6.920;2022-11-27T08:26:07;8.80;99.90
3602;DHT22;1815;50.950;6.920;2022-11-27T08:28:35;8.90;99.90
3602;DHT22;1815;50.950;6.920;2022-11-27T08:31:02;9.00;99.90
3602;DHT22;1815;50.950;6.920;2022-11-27T08:33:29;9.10;99.90
3602;DHT22;1815;50.950;6.920;2022-11-27T08:35:55;9.20;99.90
3602;DHT22;1815;50.950;6.920;2022-11-27T08:38:21;9.20;99.90
3602;DHT22;1815;50.950;6.920;2022-11-27T08:40:59;9.30;99.90
3602;DHT22;1815;50.950;6.920;2022-11-27T08:43:25;9.30;99.90
3602;DHT22;1815;50.950;6.920;2022-11-27T08:45:51;9.40;99.90
3602;DHT22;1815;50.950;6.920;2022-11-27T08:48:17;9.50;99.90
3602;DHT22;1815;50.950;6.920;2022-11-27T08:50:44;9.50;99.90
3602;DHT22;1815;50.950;6.920;2022-11-27T08:53:10;9.60;99.90
3602;DHT22;1815;50.950;6.920;2022-11-27T08:55:36;9.60;99.90
3602;DHT22;1815;50.950;6.920;2022-11-27T08:58:03;9.60;99.90
3602;DHT22;1815;50.950;6.920;2022-11-27T09:00:29;9.70;99.90
3602;DHT22;1815;50.950;6.920;2022-11-27T09:02:57;9.80;99.90
3602;DHT22;1815;50.950;6.920;2022-11-27T09:05:22;9.80;99.90
3602;DHT22;1815;50.950;6.920;2022-11-27T09:07:49;9.90;99.90
3602;DHT22;1815;50.950;6.920;2022-11-27T09:10:15;9.90;99.90
3602;DHT22;1815;50.950;6.920;2022-11-27T09:12:41;9.90;99.90
3602;DHT22;1815;50.950;6.920;2022-11-27T09:15:10;9.90;99.90
3602;DHT22;1815;50.950;6.920;2022-11-27T09:17:36;9.90;99.90
3602;DHT22;1815;50.950;6.920;2022-11-27T09:20:02;10.00;99.90
3602;DHT22;1815;50.950;6.920;2022-11-27T09:22:29;9.90;99.90
3602;DHT22;1815;50.950;6.920;2022-11-27T09:24:54;10.00;99.90
3602;DHT22;1815;50.950;6.920;2022-11-27T09:27:20;10.00;99.90
3602;DHT22;1815;50.950;6.920;2022-11-27T09:29:46;10.00;99.90
3602;DHT22;1815;50.950;6.920;2022-11-27T09:32:11;9.90;99.90
3602;DHT22;1815;50.950;6.920;2022-11-27T09:34:37;9.80;99.90
3602;DHT22;1815;50.950;6.920;2022-11-27T09:37:03;9.90;99.90
3602;DHT22;1815;50.950;6.920;2022-11-27T09:39:29;9.90;99.90
3602;DHT22;1815;50.950;6.920;2022-11-27T09:42:03;9.90;99.90
3602;DHT22;1815;50.950;6.920;2022-11-27T09:44:39;9.90;99.90
3602;DHT22;1815;50.950;6.920;2022-11-27T09:50:12;10.00;99.90
3602;DHT22;1815;50.950;6.920;2022-11-27T09:52:40;10.10;99.90
3602;DHT22;1815;50.950;6.920;2022-11-27T09:55:42;10.20;99.90
3602;DHT22;1815;50.950;6.920;2022-11-27T10:00:46;10.30;99.90
3602;DHT22;1815;50.950;6.920;2022-11-27T10:03:21;10.40;99.90
3602;DHT22;1815;50.950;6.920;2022-11-27T10:09:00;10.50;99.90
3602;DHT22;1815;50.950;6.920;2022-11-27T10:16:53;10.80;99.90
3602;DHT22;1815;50.950;6.920;2022-11-27T10:30:41;10.70;99.90
3602;DHT22;1815;50.950;6.920;2022-11-27T10:33:16;10.90;99.90
3602;DHT22;1815;50.950;6.920;2022-11-27T10:35:44;10.90;99.90
3602;DHT22;1815;50.950;6.920;2022-11-27T10:38:18;10.90;99.90
3602;DHT22;1815;50.950;6.920;2022-11-27T10:41:03;10.90;99.90
3602;DHT22;1815;50.950;6.920;2022-11-27T10:43:31;10.80;99.90
3602;DHT22;1815;50.950;6.920;2022-11-27T10:46:16;10.70;99.90
3602;DHT22;1815;50.950;6.920;2022-11-27T10:48:43;10.80;99.90
3602;DHT22;1815;50.950;6.920;2022-11-27T10:51:15;10.80;99.90
3602;DHT22;1815;50.950;6.920;2022-11-27T10:53:42;10.80;99.90
3602;DHT22;1815;50.950;6.920;2022-11-27T10:59:02;10.80;99.90
3602;DHT22;1815;50.950;6.920;2022-11-27T11:01:45;10.80;99.90
3602;DHT22;1815;50.950;6.920;2022-11-27T11:04:13;10.90;99.90
3602;DHT22;1815;50.950;6.920;2022-11-27T11:06:43;10.90;99.90
3602;DHT22;1815;50.950;6.920;2022-11-27T11:09:22;11.00;99.90
3602;DHT22;1815;50.950;6.920;2022-11-27T11:11:49;11.10;99.90
3602;DHT22;1815;50.950;6.920;2022-11-27T11:14:21;11.20;99.90
3602;DHT22;1815;50.950;6.920;2022-11-27T11:16:47;11.20;99.90
3602;DHT22;1815;50.950;6.920;2022-11-27T11:19:31;11.30;99.90
3602;DHT22;1815;50.950;6.920;2022-11-27T11:21:58;11.30;99.90
3602;DHT22;1815;50.950;6.920;2022-11-27T11:26:56;11.50;99.90
3602;DHT22;1815;50.950;6.920;2022-11-27T11:29:25;11.40;99.90
3602;DHT22;1815;50.950;6.920;2022-11-27T11:31:53;11.40;99.90
3602;DHT22;1815;50.950;6.920;2022-11-27T11:34:23;11.40;99.90
3602;DHT22;1815;50.950;6.920;2022-11-27T11:37:01;11.50;99.90
3602;DHT22;1815;50.950;6.920;2022-11-27T11:40:06;11.50;99.90
3602;DHT22;1815;50.950;6.920;2022-11-27T11:42:35;11.50;99.90
3602;DHT22;1815;50.950;6.920;2022-11-27T11:47:54;11.50;99.90
3602;DHT22;1815;50.950;6.920;2022-11-27T11:50:36;11.50;99.90
3602;DHT22;1815;50.950;6.920;2022-11-27T11:59:09;11.40;99.90
3602;DHT22;1815;50.950;6.920;2022-11-27T12:02:15;11.40;99.90
3602;DHT22;1815;50.950;6.920;2022-11-27T12:22:21;11.60;99.90
3602;DHT22;1815;50.950;6.920;2022-11-27T12:33:22;11.80;99.90
3602;DHT22;1815;50.950;6.920;2022-11-27T12:43:57;11.90;99.90
3602;DHT22;1815;50.950;6.920;2022-11-27T12:49:04;11.90;99.90
3602;DHT22;1815;50.950;6.920;2022-11-27T12:54:33;11.90;99.90
3602;DHT22;1815;50.950;6.920;2022-11-27T12:57:07;12.00;99.90
3602;DHT22;1815;50.950;6.920;2022-11-27T12:59:59;12.00;99.90
3602;DHT22;1815;50.950;6.920;2022-11-27T13:05:27;11.90;99.90
3602;DHT22;1815;50.950;6.920;2022-11-27T13:10:27;12.00;99.90
3602;DHT22;1815;50.950;6.920;2022-11-27T13:13:25;12.00;99.90
3602;DHT22;1815;50.950;6.920;2022-11-27T13:16:12;12.00;99.90
3602;DHT22;1815;50.950;6.920;2022-11-27T13:18:49;12.00;99.90
3602;DHT22;1815;50.950;6.920;2022-11-27T13:21:25;12.00;99.90
3602;DHT22;1815;50.950;6.920;2022-11-27T13:23:51;12.00;99.90
3602;DHT22;1815;50.950;6.920;2022-11-27T13:26:34;12.00;99.90
3602;DHT22;1815;50.950;6.920;2022-11-27T13:29:12;12.00;99.90
3602;DHT22;1815;50.950;6.920;2022-11-27T13:31:42;12.00;99.90
3602;DHT22;1815;50.950;6.920;2022-11-27T13:34:19;12.10;99.90
3602;DHT22;1815;50.950;6.920;2022-11-27T13:36:53;12.10;99.90
3602;DHT22;1815;50.950;6.920;2022-11-27T13:39:32;12.10;99.90
3602;DHT22;1815;50.950;6.920;2022-11-27T13:44:41;12.10;99.90
3602;DHT22;1815;50.950;6.920;2022-11-27T13:47:14;12.10;99.90
3602;DHT22;1815;50.950;6.920;2022-11-27T13:49:41;12.20;99.90
3602;DHT22;1815;50.950;6.920;2022-11-27T13:52:13;12.00;99.90
3602;DHT22;1815;50.950;6.920;2022-11-27T13:54:58;12.00;99.90
3602;DHT22;1815;50.950;6.920;2022-11-27T13:57:25;12.00;99.90
3602;DHT22;1815;50.950;6.920;2022-11-27T13:59:59;12.00;99.90
3602;DHT22;1815;50.950;6.920;2022-11-27T14:02:42;12.00;99.90
3602;DHT22;1815;50.950;6.920;2022-11-27T14:05:09;12.00;99.90
3602;DHT22;1815;50.950;6.920;2022-11-27T14:07:38;12.00;99.90
3602;DHT22;1815;50.950;6.920;2022-11-27T14:13:51;11.90;99.90
3602;DHT22;1815;50.950;6.920;2022-11-27T14:18:49;11.90;99.90
3602;DHT22;1815;50.950;6.920;2022-11-27T14:26:52;11.80;99.90
3602;DHT22;1815;50.950;6.920;2022-11-27T14:29:22;11.80;99.90
3602;DHT22;1815;50.950;6.920;2022-11-27T14:31:59;11.70;99.90
3602;DHT22;1815;50.950;6.920;2022-11-27T14:34:32;11.70;99.90
3602;DHT22;1815;50.950;6.920;2022-11-27T14:36:59;11.60;99.90
3602;DHT22;1815;50.950;6.920;2022-11-27T14:39:29;11.60;99.90
3602;DHT22;1815;50.950;6.920;2022-11-27T14:42:00;11.60;99.90
3602;DHT22;1815;50.950;6.920;2022-11-27T14:44:27;11.50;99.90
3602;DHT22;1815;50.950;6.920;2022-11-27T14:46:55;11.50;99.90
3602;DHT22;1815;50.950;6.920;2022-11-27T14:49:24;11.40;99.90
3602;DHT22;1815;50.950;6.920;2022-11-27T14:51:50;11.40;99.90
3602;DHT22;1815;50.950;6.920;2022-11-27T14:54:23;11.40;99.90
3602;DHT22;1815;50.950;6.920;2022-11-27T14:56:51;11.40;99.90
3602;DHT22;1815;50.950;6.920;2022-11-27T14:59:22;11.40;99.90
3602;DHT22;1815;50.950;6.920;2022-11-27T15:04:32;11.20;99.90
3602;DHT22;1815;50.950;6.920;2022-11-27T15:07:00;11.10;99.90
3602;DHT22;1815;50.950;6.920;2022-11-27T15:09:27;11.00;99.90
3602;DHT22;1815;50.950;6.920;2022-11-27T15:12:02;11.00;99.90
3602;DHT22;1815;50.950;6.920;2022-11-27T15:14:30;11.00;99.90
3602;DHT22;1815;50.950;6.920;2022-11-27T15:16:56;10.90;99.90
3602;DHT22;1815;50.950;6.920;2022-11-27T15:19:27;10.80;99.90
3602;DHT22;1815;50.950;6.920;2022-11-27T15:21:55;10.70;99.90
3602;DHT22;1815;50.950;6.920;2022-11-27T15:24:32;10.70;99.90
3602;DHT22;1815;50.950;6.920;2022-11-27T15:29:43;10.50;99.90
3602;DHT22;1815;50.950;6.920;2022-11-27T15:32:17;10.50;99.90
3602;DHT22;1815;50.950;6.920;2022-11-27T15:34:43;10.40;99.90
3602;DHT22;1815;50.950;6.920;2022-11-27T15:37:20;10.30;99.90
3602;DHT22;1815;50.950;6.920;2022-11-27T15:39:54;10.20;99.90
3602;DHT22;1815;50.950;6.920;2022-11-27T15:42:20;10.10;99.90
3602;DHT22;1815;50.950;6.920;2022-11-27T15:44:49;10.10;99.90
3602;DHT22;1815;50.950;6.920;2022-11-27T15:47:27;10.10;99.90
3602;DHT22;1815;50.950;6.920;2022-11-27T15:49:53;10.00;99.90
3602;DHT22;1815;50.950;6.920;2022-11-27T15:52:19;10.00;99.90
3602;DHT22;1815;50.950;6.920;2022-11-27T15:54:45;10.00;99.90
3602;DHT22;1815;50.950;6.920;2022-11-27T15:57:11;10.00;99.90
3602;DHT22;1815;50.950;6.920;2022-11-27T15:59:37;10.00;99.90
3602;DHT22;1815;50.950;6.920;2022-11-27T16:02:03;10.00;99.90
3602;DHT22;1815;50.950;6.920;2022-11-27T16:04:29;10.00;99.90
3602;DHT22;1815;50.950;6.920;2022-11-27T16:06:55;9.90;99.90
3602;DHT22;1815;50.950;6.920;2022-11-27T16:09:21;9.80;99.90
3602;DHT22;1815;50.950;6.920;2022-11-27T16:11:47;9.80;99.90
3602;DHT22;1815;50.950;6.920;2022-11-27T16:14:13;9.70;99.90
3602;DHT22;1815;50.950;6.920;2022-11-27T16:16:39;9.60;99.90
3602;DHT22;1815;50.950;6.920;2022-11-27T16:19:05;9.60;99.90
3602;DHT22;1815;50.950;6.920;2022-11-27T16:21:32;9.60;99.90
3602;DHT22;1815;50.950;6.920;2022-11-27T16:24:00;9.50;99.90
3602;DHT22;1815;50.950;6.920;2022-11-27T16:26:27;9.50;99.90
3602;DHT22;1815;50.950;6.920;2022-11-27T16:28:53;9.50;99.90
3602;DHT22;1815;50.950;6.920;2022-11-27T16:31:19;9.50;99.90
3602;DHT22;1815;50.950;6.920;2022-11-27T16:33:46;9.40;99.90
3602;DHT22;1815;50.950;6.920;2022-11-27T16:36:15;9.50;99.90
3602;DHT22;1815;50.950;6.920;2022-11-27T16:38:42;9.50;99.90
3602;DHT22;1815;50.950;6.920;2022-11-27T16:41:10;9.40;99.90
3602;DHT22;1815;50.950;6.920;2022-11-27T16:43:45;9.50;99.90
3602;DHT22;1815;50.950;6.920;2022-11-27T16:46:17;9.50;99.90
3602;DHT22;1815;50.950;6.920;2022-11-27T16:48:44;9.50;99.90
3602;DHT22;1815;50.950;6.920;2022-11-27T16:51:16;9.50;99.90
3602;DHT22;1815;50.950;6.920;2022-11-27T16:53:45;9.50;99.90
3602;DHT22;1815;50.950;6.920;2022-11-27T16:56:13;9.60;99.90
3602;DHT22;1815;50.950;6.920;2022-11-27T16:58:41;9.60;99.90
3602;DHT22;1815;50.950;6.920;2022-11-27T17:01:09;9.60;99.90
3602;DHT22;1815;50.950;6.920;2022-11-27T17:03:36;9.60;99.90
3602;DHT22;1815;50.950;6.920;2022-11-27T17:06:09;9.60;99.90
3602;DHT22;1815;50.950;6.920;2022-11-27T17:08:36;9.60;99.90
3602;DHT22;1815;50.950;6.920;2022-11-27T17:11:17;9.60;99.90
3602;DHT22;1815;50.950;6.920;2022-11-27T17:13:45;9.60;99.90
3602;DHT22;1815;50.950;6.920;2022-11-27T17:16:13;9.60;99.90
3602;DHT22;1815;50.950;6.920;2022-11-27T17:18:42;9.50;99.90
3602;DHT22;1815;50.950;6.920;2022-11-27T17:21:22;9.50;99.90
3602;DHT22;1815;50.950;6.920;2022-11-27T17:23:58;9.50;99.90
3602;DHT22;1815;50.950;6.920;2022-11-27T17:26:25;9.50;99.90
3602;DHT22;1815;50.950;6.920;2022-11-27T17:28:51;9.60;99.90
3602;DHT22;1815;50.950;6.920;2022-11-27T17:31:29;9.60;99.90
3602;DHT22;1815;50.950;6.920;2022-11-27T17:33:58;9.60;99.90
3602;DHT22;1815;50.950;6.920;2022-11-27T17:36:24;9.60;99.90
3602;DHT22;1815;50.950;6.920;2022-11-27T17:38:51;9.60;99.90
3602;DHT22;1815;50.950;6.920;2022-11-27T17:41:18;9.60;99.90
3602;DHT22;1815;50.950;6.920;2022-11-27T17:43:45;9.60;99.90
3602;DHT22;1815;50.950;6.920;2022-11-27T17:46:16;9.60;99.90
3602;DHT22;1815;50.950;6.920;2022-11-27T17:48:43;9.50;99.90
3602;DHT22;1815;50.950;6.920;2022-11-27T17:51:09;9.50;99.90
3602;DHT22;1815;50.950;6.920;2022-11-27T17:53:36;9.60;99.90
3602;DHT22;1815;50.950;6.920;2022-11-27T17:56:05;9.60;99.90
3602;DHT22;1815;50.950;6.920;2022-11-27T17:58:32;9.60;99.90
3602;DHT22;1815;50.950;6.920;2022-11-27T18:00:58;9.50;99.90
3602;DHT22;1815;50.950;6.920;2022-11-27T18:03:27;9.50;99.90
3602;DHT22;1815;50.950;6.920;2022-11-27T18:05:53;9.50;99.90
3602;DHT22;1815;50.950;6.920;2022-11-27T18:08:20;9.50;99.90
3602;DHT22;1815;50.950;6.920;2022-11-27T18:10:47;9.50;99.90
3602;DHT22;1815;50.950;6.920;2022-11-27T18:13:13;9.50;99.90
3602;DHT22;1815;50.950;6.920;2022-11-27T18:15:39;9.50;99.90
3602;DHT22;1815;50.950;6.920;2022-11-27T18:18:06;9.50;99.90
3602;DHT22;1815;50.950;6.920;2022-11-27T18:20:32;9.50;99.90
3602;DHT22;1815;50.950;6.920;2022-11-27T18:22:58;9.50;99.90
3602;DHT22;1815;50.950;6.920;2022-11-27T18:25:24;9.50;99.90
3602;DHT22;1815;50.950;6.920;2022-11-27T18:27:49;9.50;99.90
3602;DHT22;1815;50.950;6.920;2022-11-27T18:30:15;9.40;99.90
3602;DHT22;1815;50.950;6.920;2022-11-27T18:32:41;9.40;99.90
3602;DHT22;1815;50.950;6.920;2022-11-27T18:35:08;9.40;99.90